createdAt,value
2022-09-16T00:01:12.953Z,13.70
2022-09-16T00:03:42.875Z,13.60
2022-09-16T00:06:19.323Z,13.50
2022-09-16T00:08:47.722Z,13.50
2022-09-16T00:11:16.316Z,13.50
2022-09-16T00:13:44.352Z,13.50
2022-09-16T00:16:21.643Z,13.50
2022-09-16T00:18:54.954Z,13.60
2022-09-16T00:21:24.049Z,13.60
2022-09-16T00:23:52.171Z,13.50
2022-09-16T00:26:20.338Z,13.50
2022-09-16T00:28:49.734Z,13.40
2022-09-16T00:31:18.601Z,13.40
2022-09-16T00:33:47.042Z,13.40
2022-09-16T00:36:18.406Z,13.50
2022-09-16T00:38:46.781Z,13.60
2022-09-16T00:41:19.205Z,13.50
2022-09-16T00:43:50.246Z,13.50
2022-09-16T00:46:22.148Z,13.50
2022-09-16T00:48:51.153Z,13.70
2022-09-16T00:51:22.041Z,13.70
2022-09-16T00:53:56.906Z,13.60
2022-09-16T00:56:27.165Z,13.60
2022-09-16T00:59:03.158Z,13.50
2022-09-16T01:01:31.992Z,13.50
2022-09-16T01:04:03.629Z,13.60
2022-09-16T01:06:36.985Z,13.70
2022-09-16T01:09:05.449Z,13.60
2022-09-16T01:11:33.650Z,13.20
2022-09-16T01:14:17.724Z,13.00
2022-09-16T01:16:51.483Z,13.00
2022-09-16T01:19:33.762Z,12.90
2022-09-16T01:22:19.247Z,12.80
2022-09-16T01:25:06.360Z,12.90
2022-09-16T01:28:02.123Z,13.10
2022-09-16T01:30:56.505Z,13.00
2022-09-16T01:33:35.935Z,13.00
2022-09-16T01:36:23.835Z,12.80
2022-09-16T01:39:08.083Z,12.50
2022-09-16T01:41:47.241Z,12.30
2022-09-16T01:44:25.759Z,12.30
2022-09-16T01:47:03.338Z,12.20
2022-09-16T01:49:39.663Z,12.40
2022-09-16T01:52:19.296Z,12.80
2022-09-16T01:54:52.261Z,12.80
2022-09-16T01:57:25.005Z,13.00
2022-09-16T01:59:59.905Z,13.00
2022-09-16T02:02:33.306Z,13.00
2022-09-16T02:05:04.898Z,12.60
2022-09-16T02:07:36.320Z,12.80
2022-09-16T02:10:11.608Z,12.40
2022-09-16T02:12:43.466Z,12.60
2022-09-16T02:15:22.121Z,13.00
2022-09-16T02:17:56.162Z,13.20
2022-09-16T02:20:28.247Z,13.20
2022-09-16T02:23:00.871Z,12.80
2022-09-16T02:25:32.840Z,13.00
2022-09-16T02:28:03.352Z,13.10
2022-09-16T02:30:31.869Z,13.30
2022-09-16T02:33:05.878Z,12.90
2022-09-16T02:35:37.447Z,12.40
2022-09-16T02:38:11.884Z,11.90
2022-09-16T02:40:47.826Z,12.10
2022-09-16T02:43:16.174Z,12.60
2022-09-16T02:45:51.339Z,12.50
2022-09-16T02:48:28.233Z,12.60
2022-09-16T02:51:04.689Z,13.00
2022-09-16T02:53:44.195Z,12.90
2022-09-16T02:56:22.943Z,13.10
2022-09-16T02:58:51.192Z,13.10
2022-09-16T03:01:21.035Z,13.40
2022-09-16T03:03:51.027Z,13.40
2022-09-16T03:06:21.856Z,13.40
2022-09-16T03:08:51.209Z,13.50
2022-09-16T03:11:42.281Z,13.50
2022-09-16T03:14:40.701Z,13.50
2022-09-16T03:17:23.189Z,13.70
2022-09-16T03:20:01.179Z,13.60
2022-09-16T03:22:43.431Z,13.70
2022-09-16T03:25:21.154Z,13.80
2022-09-16T03:27:53.502Z,13.60
2022-09-16T03:30:21.954Z,13.40
2022-09-16T03:32:54.055Z,13.30
2022-09-16T03:35:27.720Z,13.20
2022-09-16T03:37:59.157Z,13.10
2022-09-16T03:40:30.410Z,13.20
2022-09-16T03:42:59.385Z,13.40
2022-09-16T03:45:27.556Z,13.40
2022-09-16T03:47:55.753Z,13.30
2022-09-16T03:50:25.143Z,13.40
2022-09-16T03:52:53.481Z,13.20
2022-09-16T03:55:21.524Z,13.30
2022-09-16T03:57:49.566Z,13.20
2022-09-16T04:00:17.766Z,13.10
2022-09-16T04:02:45.992Z,13.00
2022-09-16T04:05:14.035Z,12.80
2022-09-16T04:07:43.403Z,12.80
2022-09-16T04:10:12.430Z,12.70
2022-09-16T04:12:40.913Z,12.90
2022-09-16T04:15:09.748Z,12.90
2022-09-16T04:17:37.823Z,13.00
2022-09-16T04:20:07.526Z,13.10
2022-09-16T04:22:35.705Z,12.90
2022-09-16T04:25:05.654Z,13.10
2022-09-16T04:27:33.713Z,13.20
2022-09-16T04:30:01.751Z,13.00
2022-09-16T04:32:29.918Z,12.90
2022-09-16T04:34:57.930Z,13.00
2022-09-16T04:37:25.967Z,12.70
2022-09-16T04:39:54.065Z,12.80
2022-09-16T04:42:23.598Z,13.00
2022-09-16T04:44:51.632Z,12.90
2022-09-16T04:47:19.719Z,12.90
2022-09-16T04:49:47.785Z,12.80
2022-09-16T04:52:15.935Z,12.70
2022-09-16T04:54:43.990Z,12.80
2022-09-16T04:57:12.047Z,12.90
2022-09-16T04:59:41.454Z,12.80
2022-09-16T05:02:09.494Z,12.60
2022-09-16T05:04:37.516Z,12.50
2022-09-16T05:07:06.067Z,12.60
2022-09-16T05:09:34.147Z,12.60
2022-09-16T05:12:02.499Z,12.60
2022-09-16T05:14:30.637Z,12.60
2022-09-16T05:17:00.164Z,12.50
2022-09-16T05:19:28.172Z,12.60
2022-09-16T05:21:56.234Z,12.70
2022-09-16T05:24:24.257Z,12.90
2022-09-16T05:26:52.308Z,13.10
2022-09-16T05:29:20.558Z,13.00
2022-09-16T05:31:48.617Z,13.10
2022-09-16T05:34:19.625Z,13.00
2022-09-16T05:36:49.476Z,12.90
2022-09-16T05:39:23.078Z,12.80
2022-09-16T05:41:55.313Z,13.20
2022-09-16T05:44:23.783Z,13.30
2022-09-16T05:46:51.858Z,13.40
2022-09-16T05:49:21.670Z,13.40
2022-09-16T05:51:50.580Z,13.60
2022-09-16T05:54:19.290Z,13.50
2022-09-16T05:56:47.748Z,13.60
2022-09-16T05:59:16.810Z,13.50
2022-09-16T06:01:45.709Z,13.20
2022-09-16T06:04:16.582Z,13.20
2022-09-16T06:06:47.120Z,13.50
2022-09-16T06:09:17.363Z,13.60
2022-09-16T06:11:48.028Z,13.70
2022-09-16T06:14:17.214Z,13.60
2022-09-16T06:16:45.915Z,13.80
2022-09-16T06:19:15.853Z,13.70
2022-09-16T06:21:47.005Z,13.90
2022-09-16T06:24:16.573Z,13.80
2022-09-16T06:26:46.108Z,13.80
2022-09-16T06:29:14.907Z,13.70
2022-09-16T06:31:43.769Z,13.70
2022-09-16T06:34:18.007Z,14.30
2022-09-16T06:36:47.858Z,14.70
2022-09-16T06:39:17.346Z,14.80
2022-09-16T06:41:45.976Z,14.50
2022-09-16T06:44:14.049Z,14.40
2022-09-16T06:46:42.328Z,14.30
2022-09-16T06:49:13.001Z,14.30
2022-09-16T06:51:41.566Z,14.00
2022-09-16T06:54:12.980Z,14.30
2022-09-16T06:56:41.598Z,13.90
2022-09-16T06:59:10.354Z,13.60
2022-09-16T07:01:38.716Z,13.70
2022-09-16T07:04:10.439Z,13.50
2022-09-16T07:09:28.804Z,13.20
2022-09-16T07:11:56.968Z,13.30
2022-09-16T07:14:25.068Z,13.50
2022-09-16T07:16:53.356Z,13.40
2022-09-16T07:19:21.908Z,13.50
2022-09-16T07:21:49.989Z,13.30
2022-09-16T07:24:18.315Z,13.30
2022-09-16T07:26:47.929Z,13.50
2022-09-16T07:29:18.417Z,13.50
2022-09-16T07:31:46.688Z,14.00
2022-09-16T07:34:15.095Z,14.00
2022-09-16T07:36:44.958Z,14.20
2022-09-16T07:39:14.391Z,14.00
2022-09-16T07:41:43.780Z,13.80
2022-09-16T07:44:14.930Z,14.00
2022-09-16T07:46:43.078Z,14.40
2022-09-16T07:49:13.897Z,14.60
2022-09-16T07:51:42.462Z,15.20
2022-09-16T07:54:13.325Z,15.70
2022-09-16T07:56:42.510Z,16.00
2022-09-16T07:59:17.743Z,16.10
2022-09-16T08:01:47.940Z,16.20
2022-09-16T08:04:16.336Z,16.20
2022-09-16T08:06:44.406Z,15.70
2022-09-16T08:09:38.956Z,15.80
2022-09-16T08:12:02.682Z,15.90
2022-09-16T08:14:33.169Z,15.80
2022-09-16T08:17:01.914Z,15.70
2022-09-16T08:19:30.015Z,15.90
2022-09-16T08:21:58.123Z,15.40
2022-09-16T08:24:26.569Z,15.60
2022-09-16T08:29:27.717Z,15.10
2022-09-16T08:31:57.343Z,14.80
2022-09-16T08:34:25.605Z,14.70
2022-09-16T08:36:53.758Z,14.70
2022-09-16T08:39:21.914Z,14.10
2022-09-16T08:42:17.762Z,14.00
2022-09-16T08:44:52.581Z,14.10
2022-09-16T08:47:42.679Z,14.00
2022-09-16T08:50:16.713Z,14.20
2022-09-16T08:52:46.453Z,14.10
2022-09-16T08:55:19.770Z,13.70
2022-09-16T08:57:56.845Z,13.60
2022-09-16T09:00:24.884Z,13.40
2022-09-16T09:02:58.544Z,13.70
2022-09-16T09:05:33.721Z,14.40
2022-09-16T09:08:13.329Z,14.80
2022-09-16T09:10:49.375Z,15.30
2022-09-16T09:13:33.133Z,15.70
2022-09-16T09:16:09.802Z,16.30
2022-09-16T09:18:45.675Z,16.50
2022-09-16T09:21:21.617Z,16.60
2022-09-16T09:24:04.151Z,16.80
2022-09-16T09:26:40.175Z,16.90
2022-09-16T09:29:37.507Z,16.70
2022-09-16T09:32:17.310Z,19.30
2022-09-16T09:35:04.814Z,21.10
2022-09-16T09:37:46.269Z,22.10
2022-09-16T09:40:20.333Z,23.80
2022-09-16T09:42:53.389Z,23.90
2022-09-16T09:45:27.030Z,24.50
2022-09-16T09:47:58.712Z,23.40
2022-09-16T09:50:32.031Z,23.20
2022-09-16T09:53:08.404Z,20.90
2022-09-16T09:55:36.671Z,20.60
2022-09-16T09:58:17.180Z,21.00
2022-09-16T10:00:45.586Z,22.30
2022-09-16T10:03:17.514Z,21.80
2022-09-16T10:05:47.992Z,22.70
2022-09-16T10:08:22.590Z,23.90
2022-09-16T10:10:52.620Z,22.40
2022-09-16T10:13:21.797Z,22.60
2022-09-16T10:15:53.422Z,20.40
2022-09-16T10:18:27.225Z,18.80
2022-09-16T10:21:04.274Z,16.10
2022-09-16T10:23:32.801Z,14.80
2022-09-16T10:26:17.960Z,14.00
2022-09-16T10:28:55.964Z,14.10
2022-09-16T10:31:25.279Z,14.30
2022-09-16T10:33:54.073Z,14.60
2022-09-16T10:36:26.333Z,15.20
2022-09-16T10:39:04.466Z,15.30
2022-09-16T10:41:36.118Z,16.00
2022-09-16T10:44:08.327Z,16.80
2022-09-16T10:46:36.622Z,17.10
2022-09-16T10:49:13.380Z,17.50
2022-09-16T10:51:44.658Z,18.60
2022-09-16T10:54:25.436Z,19.50
2022-09-16T10:56:53.635Z,22.50
2022-09-16T10:59:21.978Z,21.70
2022-09-16T11:02:00.897Z,22.30
2022-09-16T11:04:58.658Z,23.20
2022-09-16T11:07:39.862Z,23.70
2022-09-16T11:10:18.142Z,21.90
2022-09-16T11:13:18.093Z,19.50
2022-09-16T11:16:12.997Z,20.70
2022-09-16T11:18:54.815Z,20.40
2022-09-16T11:21:50.431Z,17.40
2022-09-16T11:24:47.066Z,16.10
2022-09-16T11:27:23.551Z,15.40
2022-09-16T11:30:00.867Z,15.10
2022-09-16T11:32:39.458Z,14.90
2022-09-16T11:35:30.915Z,14.60
2022-09-16T11:38:07.012Z,14.30
2022-09-16T11:40:48.495Z,13.40
2022-09-16T11:43:41.910Z,12.70
2022-09-16T11:46:20.452Z,12.30
2022-09-16T11:49:02.778Z,12.80
2022-09-16T11:51:43.347Z,12.90
2022-09-16T11:54:28.117Z,13.00
2022-09-16T11:57:01.499Z,12.90
2022-09-16T11:59:34.685Z,12.90
2022-09-16T12:02:09.841Z,13.00
2022-09-16T12:04:45.222Z,13.00
2022-09-16T12:07:18.864Z,12.70
2022-09-16T12:09:52.869Z,12.60
2022-09-16T12:12:26.270Z,12.70
2022-09-16T12:15:03.181Z,13.30
2022-09-16T12:17:36.746Z,14.10
2022-09-16T12:20:11.942Z,14.90
2022-09-16T12:22:43.375Z,15.20
2022-09-16T12:25:16.221Z,15.60
2022-09-16T12:27:52.499Z,16.20
2022-09-16T12:30:23.679Z,16.60
2022-09-16T12:33:02.274Z,17.30
2022-09-16T12:35:34.270Z,17.10
2022-09-16T12:38:02.928Z,17.80
2022-09-16T12:40:39.253Z,17.60
2022-09-16T12:43:49.146Z,17.70
2022-09-16T12:46:54.911Z,17.70
2022-09-16T12:50:07.408Z,18.10
2022-09-16T12:52:58.916Z,18.80
2022-09-16T12:55:54.654Z,18.80
2022-09-16T12:58:48.820Z,17.40
2022-09-16T13:01:24.206Z,16.20
2022-09-16T13:03:57.873Z,15.00
2022-09-16T13:06:29.595Z,14.60
2022-09-16T13:08:58.905Z,15.10
2022-09-16T13:14:24.642Z,16.20
2022-09-16T13:16:58.826Z,17.10
2022-09-16T13:19:36.291Z,17.20
2022-09-16T13:22:20.791Z,16.80
2022-09-16T13:24:52.739Z,16.10
2022-09-16T13:27:35.862Z,16.00
2022-09-16T13:30:15.722Z,15.20
2022-09-16T13:32:46.442Z,15.00
2022-09-16T13:35:36.968Z,14.80
2022-09-16T13:38:38.738Z,14.30
2022-09-16T13:41:07.631Z,13.90
2022-09-16T13:43:38.176Z,13.80
2022-09-16T13:46:09.656Z,14.10
2022-09-16T13:48:43.423Z,14.90
2022-09-16T13:51:18.718Z,15.80
2022-09-16T13:53:49.337Z,16.90
2022-09-16T13:56:33.687Z,18.20
2022-09-16T13:59:16.949Z,18.90
2022-09-16T14:01:59.342Z,19.30
2022-09-16T14:04:42.402Z,19.70
2022-09-16T14:07:23.674Z,20.80
2022-09-16T14:10:00.171Z,20.90
2022-09-16T14:12:39.068Z,20.40
2022-09-16T14:15:08.799Z,21.30
2022-09-16T14:17:42.531Z,18.50
2022-09-16T14:20:17.066Z,17.10
2022-09-16T14:22:46.555Z,16.60
2022-09-16T14:25:29.608Z,15.90
2022-09-16T14:28:17.411Z,15.30
2022-09-16T14:30:51.253Z,15.00
2022-09-16T14:33:24.355Z,14.50
2022-09-16T14:35:55.449Z,14.90
2022-09-16T14:38:44.852Z,15.60
2022-09-16T14:41:22.989Z,15.40
2022-09-16T14:43:51.786Z,15.30
2022-09-16T14:46:20.399Z,15.10
2022-09-16T14:48:49.297Z,15.40
2022-09-16T14:51:23.217Z,15.60
2022-09-16T14:54:12.385Z,15.50
2022-09-16T14:56:41.313Z,15.50
2022-09-16T14:59:13.743Z,15.70
2022-09-16T15:01:42.758Z,15.80
2022-09-16T15:04:16.045Z,15.80
2022-09-16T15:06:49.326Z,16.10
2022-09-16T15:09:25.513Z,15.90
2022-09-16T15:11:58.395Z,15.60
2022-09-16T15:14:27.802Z,15.40
2022-09-16T15:17:00.102Z,15.10
2022-09-16T15:19:31.306Z,14.90
2022-09-16T15:21:59.484Z,14.70
2022-09-16T15:24:32.351Z,14.50
2022-09-16T15:27:01.617Z,14.50
2022-09-16T15:29:32.803Z,14.50
2022-09-16T15:32:22.509Z,14.40
2022-09-16T15:35:05.332Z,14.40
2022-09-16T15:37:34.568Z,14.20
2022-09-16T15:40:23.464Z,14.30
2022-09-16T15:43:17.935Z,14.20
2022-09-16T15:46:00.052Z,14.60
2022-09-16T15:48:32.446Z,14.80
2022-09-16T15:51:04.028Z,15.40
2022-09-16T15:53:41.715Z,15.70
2022-09-16T15:56:24.159Z,15.30
2022-09-16T15:58:58.045Z,15.20
2022-09-16T16:01:41.006Z,15.30
2022-09-16T16:04:12.078Z,15.20
2022-09-16T16:06:52.752Z,15.10
2022-09-16T16:09:41.347Z,14.80
2022-09-16T16:12:13.605Z,15.00
2022-09-16T16:14:42.384Z,15.00
2022-09-16T16:17:14.322Z,15.20
2022-09-16T16:19:43.357Z,15.40
2022-09-16T16:22:12.459Z,15.30
2022-09-16T16:24:40.879Z,14.50
2022-09-16T16:27:09.657Z,14.50
2022-09-16T16:29:39.270Z,14.70
2022-09-16T16:32:09.664Z,14.80
2022-09-16T16:34:39.478Z,13.90
2022-09-16T16:37:08.560Z,13.60
2022-09-16T16:39:37.198Z,13.20
2022-09-16T16:42:06.125Z,12.30
2022-09-16T16:44:34.795Z,12.40
2022-09-16T16:47:04.683Z,12.00
2022-09-16T16:49:33.909Z,12.20
2022-09-16T16:52:02.874Z,12.40
2022-09-16T16:54:31.550Z,12.50
2022-09-16T16:57:00.265Z,12.80
2022-09-16T16:59:28.752Z,12.50
2022-09-16T17:01:58.437Z,12.30
2022-09-16T17:04:28.206Z,12.30
2022-09-16T17:07:21.540Z,12.60
2022-09-16T17:09:45.540Z,12.20
2022-09-16T17:12:13.801Z,12.10
2022-09-16T17:14:42.465Z,12.40
2022-09-16T17:17:10.535Z,12.50
2022-09-16T17:19:39.997Z,12.20
2022-09-16T17:22:08.023Z,12.20
2022-09-16T17:24:36.097Z,12.30
2022-09-16T17:27:04.451Z,12.40
2022-09-16T17:29:32.710Z,12.20
2022-09-16T17:32:02.857Z,12.20
2022-09-16T17:34:31.421Z,12.30
2022-09-16T17:37:00.896Z,12.30
2022-09-16T17:39:29.130Z,12.30
2022-09-16T17:41:57.931Z,12.10
2022-09-16T17:44:27.130Z,12.00
2022-09-16T17:46:55.198Z,11.90
2022-09-16T17:49:24.724Z,11.90
2022-09-16T17:51:54.176Z,11.80
2022-09-16T17:54:23.889Z,11.80
2022-09-16T17:56:52.179Z,11.70
2022-09-16T17:59:20.616Z,11.50
2022-09-16T18:01:49.148Z,11.10
2022-09-16T18:04:17.194Z,11.20
2022-09-16T18:06:46.782Z,11.20
2022-09-16T18:09:16.215Z,11.20
2022-09-16T18:11:46.238Z,11.20
2022-09-16T18:14:14.952Z,11.20
2022-09-16T18:16:43.928Z,11.40
2022-09-16T18:19:12.118Z,11.40
2022-09-16T18:21:40.412Z,11.40
2022-09-16T18:24:11.123Z,11.30
2022-09-16T18:26:40.652Z,11.20
2022-09-16T18:29:12.827Z,11.10
2022-09-16T18:31:42.651Z,11.30
2022-09-16T18:34:11.270Z,11.40
2022-09-16T18:36:39.549Z,11.50
2022-09-16T18:39:11.538Z,11.80
2022-09-16T18:41:41.757Z,11.90
2022-09-16T18:44:15.784Z,11.90
2022-09-16T18:46:44.338Z,11.60
2022-09-16T18:49:14.368Z,11.80
2022-09-16T18:51:48.469Z,11.40
2022-09-16T18:54:24.415Z,11.40
2022-09-16T18:56:52.604Z,11.50
2022-09-16T18:59:24.216Z,11.50
2022-09-16T19:01:54.259Z,11.30
2022-09-16T19:04:23.961Z,11.30
2022-09-16T19:06:53.640Z,11.40
2022-09-16T19:09:24.091Z,11.40
2022-09-16T19:11:54.988Z,11.40
2022-09-16T19:14:27.380Z,11.50
2022-09-16T19:16:56.027Z,11.30
2022-09-16T19:19:24.263Z,11.40
2022-09-16T19:21:52.352Z,11.40
2022-09-16T19:24:22.017Z,11.30
2022-09-16T19:26:52.010Z,11.30
2022-09-16T19:29:21.489Z,11.40
2022-09-16T19:31:52.867Z,11.40
2022-09-16T19:34:22.363Z,11.30
2022-09-16T19:36:51.063Z,11.30
2022-09-16T19:39:21.108Z,11.30
2022-09-16T19:41:49.278Z,10.90
2022-09-16T19:44:18.763Z,10.70
2022-09-16T19:46:49.377Z,10.50
2022-09-16T19:49:22.900Z,10.30
2022-09-16T19:51:53.201Z,10.30
2022-09-16T19:54:24.027Z,10.30
2022-09-16T19:56:52.513Z,10.30
2022-09-16T19:59:22.150Z,10.40
2022-09-16T20:01:50.474Z,10.40
2022-09-16T20:04:21.113Z,10.50
2022-09-16T20:06:49.789Z,10.50
2022-09-16T20:09:18.380Z,10.40
2022-09-16T20:11:48.120Z,10.40
2022-09-16T20:14:18.878Z,10.40
2022-09-16T20:16:47.392Z,10.40
2022-09-16T20:19:19.968Z,10.40
2022-09-16T20:21:48.308Z,10.70
2022-09-16T20:24:19.219Z,10.70
2022-09-16T20:26:48.137Z,10.80
2022-09-16T20:29:17.302Z,10.90
2022-09-16T20:31:46.037Z,10.80
2022-09-16T20:34:16.123Z,10.70
2022-09-16T20:36:46.460Z,10.50
2022-09-16T20:39:14.811Z,10.50
2022-09-16T20:41:43.590Z,10.50
2022-09-16T20:44:14.091Z,10.60
2022-09-16T20:46:42.412Z,10.50
2022-09-16T20:49:15.850Z,10.60
2022-09-16T20:51:46.094Z,10.60
2022-09-16T20:54:15.451Z,10.60
2022-09-16T20:56:44.976Z,10.70
2022-09-16T20:59:14.933Z,10.70
2022-09-16T21:01:43.197Z,10.60
2022-09-16T21:04:14.355Z,10.50
2022-09-16T21:06:42.708Z,10.50
2022-09-16T21:09:14.527Z,10.50
2022-09-16T21:11:45.133Z,10.50
2022-09-16T21:14:16.139Z,10.40
2022-09-16T21:16:45.741Z,10.40
2022-09-16T21:19:14.141Z,10.40
2022-09-16T21:21:46.423Z,10.50
2022-09-16T21:24:17.070Z,10.70
2022-09-16T21:26:45.999Z,10.80
2022-09-16T21:29:17.568Z,10.90
2022-09-16T21:31:45.759Z,11.00
2022-09-16T21:34:16.002Z,10.90
2022-09-16T21:36:44.727Z,11.10
2022-09-16T21:39:15.428Z,11.40
2022-09-16T21:41:44.332Z,11.60
2022-09-16T21:44:12.902Z,11.50
2022-09-16T21:46:45.268Z,11.50
2022-09-16T21:49:19.228Z,11.70
2022-09-16T21:51:47.403Z,11.60
2022-09-16T21:54:20.140Z,11.00
2022-09-16T21:56:48.938Z,11.00
2022-09-16T21:59:17.267Z,11.00
2022-09-16T22:01:45.666Z,11.00
2022-09-16T22:04:15.952Z,10.80
2022-09-16T22:06:44.190Z,10.90
2022-09-16T22:09:12.979Z,10.80
2022-09-16T22:11:43.319Z,10.80
2022-09-16T22:14:12.265Z,10.90
2022-09-16T22:16:41.613Z,11.00
2022-09-16T22:19:12.161Z,10.90
2022-09-16T22:21:42.504Z,10.80
2022-09-16T22:24:11.521Z,10.70
2022-09-16T22:26:40.325Z,10.70
2022-09-16T22:29:11.350Z,10.60
2022-09-16T22:31:41.374Z,10.50
2022-09-16T22:34:10.091Z,10.40
2022-09-16T22:36:39.329Z,10.40
2022-09-16T22:39:09.313Z,10.50
2022-09-16T22:41:37.393Z,10.50
2022-09-16T22:44:05.668Z,10.60
2022-09-16T22:46:40.315Z,10.60
2022-09-16T22:49:08.601Z,10.60
2022-09-16T22:51:36.620Z,10.60
2022-09-16T22:54:05.204Z,10.70
2022-09-16T22:56:33.917Z,10.90
2022-09-16T22:59:03.477Z,10.90
2022-09-16T23:01:35.418Z,10.80
2022-09-16T23:04:05.108Z,10.80
2022-09-16T23:06:34.710Z,10.70
2022-09-16T23:09:02.942Z,11.00
2022-09-16T23:11:33.227Z,11.00
2022-09-16T23:14:01.972Z,11.10
2022-09-16T23:16:31.696Z,11.20
2022-09-16T23:19:02.835Z,11.20
2022-09-16T23:21:31.599Z,11.20
2022-09-16T23:24:02.018Z,11.30
2022-09-16T23:26:32.087Z,11.50
2022-09-16T23:29:02.285Z,11.20
2022-09-16T23:31:32.624Z,11.30
2022-09-16T23:34:07.488Z,11.40
2022-09-16T23:36:36.941Z,11.40
2022-09-16T23:39:06.903Z,11.50
2022-09-16T23:41:35.685Z,11.60
2022-09-16T23:44:04.623Z,11.40
2022-09-16T23:46:34.320Z,11.30
2022-09-16T23:49:04.208Z,11.40
2022-09-16T23:51:32.888Z,11.30
2022-09-16T23:54:01.176Z,11.30
2022-09-16T23:56:29.509Z,11.00
2022-09-16T23:59:00.679Z,11.00
